Time;durP1;ratioP1;P1;durP2;ratioP2;P2;SDS_P1;SDS_P2;PMS_P1;PMS_P2;Temp;Humidity;BMP_temperature;BMP_pressure;BME280_temperature;BME280_humidity;BME280_pressure;Samples;Min_cycle;Max_cycle;Signal;HPM_P1;HPM_P2
2022/02/14 00:00:19;;;;;;;0.40;0.40;;;;;;;;;;5048285;28;20099;-90
2022/02/14 00:02:45;;;;;;;0.40;0.40;;;;;;;;;;5045768;28;20021;-90
2022/02/14 00:05:12;;;;;;;0.40;0.40;;;;;;;;;;5047544;28;20037;-90
2022/02/14 00:07:38;;;;;;;0.40;0.40;;;;;;;;;;5048243;28;20608;-91
2022/02/14 00:10:05;;;;;;;0.30;0.30;;;;;;;;;;5048992;28;20033;-89
2022/02/14 00:12:31;;;;;;;0.60;0.60;;;;;;;;;;5047632;28;20032;-91
2022/02/14 00:14:58;;;;;;;0.67;0.67;;;;;;;;;;5048807;28;20033;-91
2022/02/14 00:17:24;;;;;;;0.40;0.40;;;;;;;;;;5047872;28;20033;-90
2022/02/14 00:19:51;;;;;;;0.40;0.40;;;;;;;;;;5045756;28;20032;-89
2022/02/14 00:22:21;;;;;;;0.40;0.40;;;;;;;;;;5045315;28;20454;-88
2022/02/14 00:24:47;;;;;;;0.30;0.30;;;;;;;;;;5046543;28;20140;-90
2022/02/14 00:27:13;;;;;;;0.40;0.40;;;;;;;;;;5049258;28;20029;-91
2022/02/14 00:29:39;;;;;;;0.30;0.30;;;;;;;;;;5049346;28;20062;-90
2022/02/14 00:32:06;;;;;;;0.30;0.30;;;;;;;;;;5041172;28;20041;-93
2022/02/14 00:34:32;;;;;;;0.30;0.30;;;;;;;;;;5047112;28;20029;-92
2022/02/14 00:36:58;;;;;;;0.40;0.40;;;;;;;;;;5048235;28;20040;-94
2022/02/14 00:39:24;;;;;;;0.37;0.37;;;;;;;;;;5050385;28;20032;-93
2022/02/14 00:41:50;;;;;;;0.30;0.30;;;;;;;;;;5048680;28;20050;-92
2022/02/14 00:44:16;;;;;;;0.40;0.40;;;;;;;;;;5045178;28;20606;-86
2022/02/14 00:46:42;;;;;;;0.30;0.30;;;;;;;;;;5043867;28;20029;-85
2022/02/14 00:49:08;;;;;;;0.40;0.40;;;;;;;;;;5042479;28;20071;-85
2022/02/14 00:51:34;;;;;;;0.32;0.32;;;;;;;;;;5043426;28;20046;-85
2022/02/14 00:54:00;;;;;;;0.30;0.30;;;;;;;;;;5043620;28;20036;-85
2022/02/14 00:56:26;;;;;;;0.30;0.30;;;;;;;;;;5043780;28;20649;-85
2022/02/14 00:58:52;;;;;;;0.80;0.80;;;;;;;;;;5043649;28;20021;-86
2022/02/14 01:01:19;;;;;;;0.50;0.50;;;;;;;;;;5043393;28;20131;-85
2022/02/14 01:03:45;;;;;;;0.50;0.50;;;;;;;;;;5037576;28;20585;-85
2022/02/14 01:06:11;;;;;;;0.45;0.45;;;;;;;;;;5044067;28;20111;-84
2022/02/14 01:08:37;;;;;;;0.68;0.68;;;;;;;;;;5043724;28;20043;-85
2022/02/14 01:11:03;;;;;;;0.45;0.45;;;;;;;;;;5043620;28;20033;-84
2022/02/14 01:13:29;;;;;;;0.47;0.47;;;;;;;;;;5042956;28;20078;-85
2022/02/14 01:15:56;;;;;;;0.50;0.50;;;;;;;;;;5043282;28;20051;-88
2022/02/14 01:18:22;;;;;;;0.40;0.40;;;;;;;;;;5044575;28;20029;-89
2022/02/14 01:20:48;;;;;;;0.50;0.50;;;;;;;;;;5043783;28;20534;-89
2022/02/14 01:23:14;;;;;;;0.40;0.40;;;;;;;;;;5045924;28;20466;-90
2022/02/14 01:25:40;;;;;;;0.40;0.40;;;;;;;;;;5046066;28;20039;-94
2022/02/14 01:28:06;;;;;;;0.50;0.50;;;;;;;;;;5048057;28;20285;-93
2022/02/14 01:30:33;;;;;;;0.40;0.40;;;;;;;;;;5043059;28;20037;-91
2022/02/14 01:33:00;;;;;;;0.40;0.40;;;;;;;;;;5030052;28;20068;-90
2022/02/14 01:35:26;;;;;;;;;;;;;;;;;;5047621;28;20033;-92
2022/02/14 01:37:52;;;;;;;0.40;0.40;;;;;;;;;;5048064;28;19962;-91
2022/02/14 01:40:18;;;;;;;0.40;0.40;;;;;;;;;;5030506;28;20396;-95
2022/02/14 01:42:44;;;;;;;0.40;0.40;;;;;;;;;;5047693;28;20037;-92
2022/02/14 01:45:10;;;;;;;0.40;0.40;;;;;;;;;;5048898;28;20024;-94
2022/02/14 01:47:37;;;;;;;0.35;0.35;;;;;;;;;;5049199;28;20033;-92
2022/02/14 01:50:04;;;;;;;0.30;0.30;;;;;;;;;;5049666;28;20072;-94
2022/02/14 01:52:30;;;;;;;;;;;;;;;;;;5042829;28;20037;-93
2022/02/14 01:54:56;;;;;;;0.30;0.30;;;;;;;;;;5046923;28;19996;-93
2022/02/14 01:57:22;;;;;;;0.20;0.20;;;;;;;;;;5029584;28;20037;-93
2022/02/14 01:59:48;;;;;;;0.30;0.30;;;;;;;;;;5049646;28;20036;-95
2022/02/14 02:02:14;;;;;;;0.60;0.60;;;;;;;;;;5049354;28;20025;-94
2022/02/14 02:04:44;;;;;;;0.40;0.40;;;;;;;;;;5046342;28;20094;-86
2022/02/14 02:07:10;;;;;;;0.35;0.35;;;;;;;;;;5042186;28;20562;-83
2022/02/14 02:09:37;;;;;;;0.50;0.50;;;;;;;;;;5042183;28;20146;-85
2022/02/14 02:12:22;;;;;;;0.50;0.50;;;;;;;;;;5042101;28;20323;-83
2022/02/14 02:14:48;;;;;;;0.40;0.40;;;;;;;;;;5041999;28;20025;-83
2022/02/14 02:17:14;;;;;;;0.30;0.30;;;;;;;;;;5043127;28;20128;-83
2022/02/14 02:19:40;;;;;;;0.30;0.30;;;;;;;;;;5042361;28;20032;-84
2022/02/14 02:22:06;;;;;;;0.33;0.33;;;;;;;;;;5041783;28;20032;-84
2022/02/14 02:24:44;;;;;;;0.40;0.40;;;;;;;;;;5042178;28;20817;-84
2022/02/14 02:27:10;;;;;;;0.30;0.30;;;;;;;;;;5042119;28;20037;-84
2022/02/14 02:29:37;;;;;;;0.27;0.27;;;;;;;;;;5042048;28;20087;-84
2022/02/14 02:32:03;;;;;;;0.30;0.30;;;;;;;;;;5025212;28;20813;-86
2022/02/14 02:34:29;;;;;;;0.30;0.30;;;;;;;;;;5025106;28;20025;-85
2022/02/14 02:36:58;;;;;;;0.30;0.30;;;;;;;;;;5025413;28;20064;-86
2022/02/14 02:39:24;;;;;;;0.30;0.30;;;;;;;;;;5025837;28;20029;-88
2022/02/14 02:41:50;;;;;;;0.30;0.30;;;;;;;;;;5006230;28;20633;-85
2022/02/14 02:44:17;;;;;;;0.30;0.30;;;;;;;;;;5006101;28;20505;-85
2022/02/14 02:46:43;;;;;;;0.30;0.30;;;;;;;;;;5023722;28;20511;-85
2022/02/14 02:49:12;;;;;;;0.30;0.30;;;;;;;;;;5016893;28;20520;-84
2022/02/14 02:51:43;;;;;;;0.30;0.30;;;;;;;;;;5013498;28;20106;-83
2022/02/14 02:54:09;;;;;;;0.30;0.30;;;;;;;;;;5024763;28;20037;-83
2022/02/14 02:56:37;;;;;;;0.30;0.30;;;;;;;;;;5026745;28;20025;-84
2022/02/14 02:59:03;;;;;;;0.75;0.75;;;;;;;;;;5026415;28;20456;-83
2022/02/14 03:01:29;;;;;;;0.30;0.30;;;;;;;;;;5028166;28;20576;-84
2022/02/14 03:03:56;;;;;;;0.40;0.40;;;;;;;;;;5027087;28;20120;-87
2022/02/14 03:06:23;;;;;;;0.30;0.30;;;;;;;;;;5009567;28;20452;-89
2022/02/14 03:08:52;;;;;;;0.30;0.30;;;;;;;;;;5013557;28;20595;-88
2022/02/14 03:11:18;;;;;;;0.40;0.40;;;;;;;;;;5027458;28;20050;-88
2022/02/14 03:13:45;;;;;;;0.30;0.30;;;;;;;;;;5027275;28;20041;-87
2022/02/14 03:16:12;;;;;;;0.30;0.30;;;;;;;;;;5027826;28;20095;-89
2022/02/14 03:18:38;;;;;;;0.30;0.30;;;;;;;;;;5011418;28;20112;-89
2022/02/14 03:21:05;;;;;;;0.30;0.30;;;;;;;;;;5028758;28;20132;-87
2022/02/14 03:23:31;;;;;;;0.40;0.40;;;;;;;;;;5025820;28;20501;-84
2022/02/14 03:25:57;;;;;;;0.30;0.30;;;;;;;;;;5027980;28;20619;-84
2022/02/14 03:28:23;;;;;;;0.30;0.30;;;;;;;;;;5028254;28;20028;-86
2022/02/14 03:30:49;;;;;;;0.30;0.30;;;;;;;;;;5027950;28;20057;-85
2022/02/14 03:33:15;;;;;;;0.30;0.30;;;;;;;;;;5026714;28;20041;-85
2022/02/14 03:35:41;;;;;;;0.30;0.30;;;;;;;;;;5026803;28;20025;-86
2022/02/14 03:38:07;;;;;;;0.30;0.30;;;;;;;;;;5026180;28;20032;-86
2022/02/14 03:40:34;;;;;;;0.30;0.30;;;;;;;;;;5028357;28;20042;-86
2022/02/14 03:43:01;;;;;;;0.30;0.30;;;;;;;;;;5026551;28;20037;-85
2022/02/14 03:45:28;;;;;;;0.30;0.30;;;;;;;;;;5026744;28;20030;-86
2022/02/14 03:47:54;;;;;;;0.30;0.30;;;;;;;;;;5011880;28;20105;-85
2022/02/14 03:50:20;;;;;;;0.30;0.30;;;;;;;;;;5025694;28;20033;-86
2022/02/14 03:52:46;;;;;;;0.20;0.20;;;;;;;;;;5026253;28;20512;-86
2022/02/14 03:55:12;;;;;;;0.30;0.30;;;;;;;;;;5026652;28;20276;-86
2022/02/14 03:57:39;;;;;;;0.40;0.40;;;;;;;;;;5024753;28;20034;-84
2022/02/14 04:00:08;;;;;;;0.30;0.30;;;;;;;;;;5024184;28;20291;-85
2022/02/14 04:02:35;;;;;;;0.30;0.30;;;;;;;;;;5007657;28;20030;-85
2022/02/14 04:05:01;;;;;;;0.30;0.30;;;;;;;;;;5026848;28;20091;-90
2022/02/14 04:07:27;;;;;;;0.47;0.47;;;;;;;;;;5030494;28;20603;-94
2022/02/14 04:09:53;;;;;;;0.30;0.30;;;;;;;;;;5033960;28;20444;-94
2022/02/14 04:12:19;;;;;;;0.25;0.25;;;;;;;;;;5017244;28;20516;-94
2022/02/14 04:14:45;;;;;;;0.30;0.30;;;;;;;;;;5033080;28;20080;-94
2022/02/14 04:17:12;;;;;;;0.40;0.40;;;;;;;;;;5031783;28;20401;-94
2022/02/14 04:19:38;;;;;;;0.30;0.30;;;;;;;;;;5013706;28;20037;-93
2022/02/14 04:22:05;;;;;;;0.20;0.20;;;;;;;;;;5028102;28;20033;-91
2022/02/14 04:24:31;;;;;;;0.30;0.30;;;;;;;;;;5011021;28;20029;-90
2022/02/14 04:26:57;;;;;;;0.30;0.30;;;;;;;;;;5028515;28;20032;-87
2022/02/14 04:29:23;;;;;;;0.30;0.30;;;;;;;;;;5025546;28;20276;-88
2022/02/14 04:31:49;;;;;;;0.30;0.30;;;;;;;;;;5028074;28;20053;-91
2022/02/14 04:34:18;;;;;;;0.23;0.23;;;;;;;;;;5021719;28;20029;-93
2022/02/14 04:36:45;;;;;;;0.30;0.30;;;;;;;;;;5009818;28;20116;-82
2022/02/14 04:39:11;;;;;;;0.30;0.30;;;;;;;;;;5026092;28;20145;-82
2022/02/14 04:41:37;;;;;;;0.30;0.30;;;;;;;;;;5025375;28;20689;-85
2022/02/14 04:44:03;;;;;;;0.28;0.28;;;;;;;;;;5027422;28;20091;-85
2022/02/14 04:46:29;;;;;;;0.30;0.30;;;;;;;;;;5025503;28;20033;-86
2022/02/14 04:48:55;;;;;;;0.25;0.25;;;;;;;;;;5025722;28;20280;-87
2022/02/14 04:51:21;;;;;;;0.47;0.47;;;;;;;;;;5028124;28;20896;-92
2022/02/14 04:53:47;;;;;;;0.40;0.40;;;;;;;;;;5030467;28;20056;-90
2022/02/14 04:56:14;;;;;;;0.53;0.53;;;;;;;;;;5030228;28;20028;-91
2022/02/14 04:58:40;;;;;;;0.40;0.40;;;;;;;;;;5010592;28;20345;-89
2022/02/14 05:01:06;;;;;;;0.30;0.30;;;;;;;;;;5012536;28;20129;-91
2022/02/14 05:03:32;;;;;;;0.32;0.32;;;;;;;;;;5029791;28;20029;-92
2022/02/14 05:05:58;;;;;;;0.30;0.30;;;;;;;;;;5026975;28;20098;-82
2022/02/14 05:08:24;;;;;;;0.50;0.50;;;;;;;;;;5020971;28;20398;-83
2022/02/14 05:10:50;;;;;;;0.80;0.80;;;;;;;;;;5024679;28;20047;-83
2022/02/14 05:13:16;;;;;;;0.40;0.40;;;;;;;;;;5025044;28;20069;-93
2022/02/14 05:15:42;;;;;;;0.37;0.37;;;;;;;;;;5024574;28;20059;-85
2022/02/14 05:18:08;;;;;;;0.50;0.50;;;;;;;;;;5024462;28;20330;-85
2022/02/14 05:20:35;;;;;;;0.30;0.30;;;;;;;;;;5023603;28;20030;-85
2022/02/14 05:23:01;;;;;;;0.30;0.30;;;;;;;;;;5024143;28;20030;-85
2022/02/14 05:25:27;;;;;;;0.30;0.30;;;;;;;;;;5024279;28;20397;-83
2022/02/14 05:27:53;;;;;;;0.30;0.30;;;;;;;;;;5024337;28;20459;-84
2022/02/14 05:30:20;;;;;;;0.20;0.20;;;;;;;;;;5025959;28;20055;-83
2022/02/14 05:32:46;;;;;;;0.25;0.25;;;;;;;;;;5024048;28;20551;-84
2022/02/14 05:35:13;;;;;;;0.30;0.30;;;;;;;;;;5024745;28;20056;-83
2022/02/14 05:37:39;;;;;;;0.43;0.43;;;;;;;;;;5024492;28;20055;-84
2022/02/14 05:40:06;;;;;;;0.30;0.30;;;;;;;;;;5024599;28;20029;-87
2022/02/14 05:42:32;;;;;;;0.30;0.30;;;;;;;;;;5024324;28;20512;-89
2022/02/14 05:44:58;;;;;;;0.40;0.40;;;;;;;;;;5024318;28;20068;-87
2022/02/14 05:47:24;;;;;;;0.30;0.30;;;;;;;;;;5023996;28;20636;-89
2022/02/14 05:49:50;;;;;;;0.30;0.30;;;;;;;;;;5024837;28;20203;-87
2022/02/14 05:52:16;;;;;;;0.30;0.30;;;;;;;;;;5026351;28;20041;-88
2022/02/14 05:54:42;;;;;;;0.30;0.30;;;;;;;;;;5024270;28;20068;-86
2022/02/14 05:57:10;;;;;;;0.30;0.30;;;;;;;;;;5023940;28;20108;-86
2022/02/14 05:59:36;;;;;;;0.22;0.22;;;;;;;;;;5023247;28;20057;-86
2022/02/14 06:02:02;;;;;;;0.40;0.40;;;;;;;;;;5024202;28;20033;-85
2022/02/14 06:04:28;;;;;;;0.30;0.30;;;;;;;;;;5025915;28;20098;-87
2022/02/14 06:06:54;;;;;;;0.30;0.30;;;;;;;;;;5020687;28;20034;-88
2022/02/14 06:09:21;;;;;;;0.30;0.30;;;;;;;;;;5014273;28;20052;-87
2022/02/14 06:11:47;;;;;;;;;;;;;;;;;;5006635;28;20037;-88
2022/02/14 06:14:13;;;;;;;0.38;0.38;;;;;;;;;;5023422;28;19923;-87
2022/02/14 06:16:39;;;;;;;0.30;0.30;;;;;;;;;;5022619;28;20040;-90
2022/02/14 06:19:06;;;;;;;0.30;0.30;;;;;;;;;;5025469;28;20029;-88
2022/02/14 06:21:32;;;;;;;0.25;0.25;;;;;;;;;;5005773;28;20811;-89
2022/02/14 06:23:58;;;;;;;0.50;0.50;;;;;;;;;;5026553;28;20071;-86
2022/02/14 06:26:24;;;;;;;0.22;0.22;;;;;;;;;;5023961;28;20112;-87
2022/02/14 06:28:51;;;;;;;0.50;0.50;;;;;;;;;;5023412;28;20034;-88
2022/02/14 06:31:17;;;;;;;0.47;0.47;;;;;;;;;;5022984;28;20061;-85
2022/02/14 06:33:43;;;;;;;0.60;0.60;;;;;;;;;;5025038;28;20037;-86
2022/02/14 06:36:09;;;;;;;0.40;0.40;;;;;;;;;;5025355;28;20117;-84
2022/02/14 06:38:35;;;;;;;0.40;0.40;;;;;;;;;;5004941;28;20040;-82
2022/02/14 06:41:01;;;;;;;0.30;0.30;;;;;;;;;;5021359;28;20277;-83
2022/02/14 06:43:27;;;;;;;0.30;0.30;;;;;;;;;;5020166;28;20091;-82
2022/02/14 06:45:53;;;;;;;0.30;0.30;;;;;;;;;;5010912;28;21755;-80
2022/02/14 06:48:20;;;;;;;0.20;0.20;;;;;;;;;;5011224;28;20029;-81
2022/02/14 06:50:46;;;;;;;0.22;0.22;;;;;;;;;;5009197;28;20514;-80
2022/02/14 06:53:12;;;;;;;0.40;0.40;;;;;;;;;;5017991;28;20068;-83
2022/02/14 06:55:38;;;;;;;0.60;0.60;;;;;;;;;;5010997;28;20600;-80
2022/02/14 06:58:05;;;;;;;0.68;0.68;;;;;;;;;;5020409;28;20041;-81
2022/02/14 07:00:31;;;;;;;0.50;0.50;;;;;;;;;;5012483;28;20037;-82
2022/02/14 07:02:57;;;;;;;0.50;0.50;;;;;;;;;;5022598;28;20524;-82
2022/02/14 07:05:25;;;;;;;0.50;0.50;;;;;;;;;;5006245;28;20141;-86
2022/02/14 07:07:51;;;;;;;0.50;0.50;;;;;;;;;;5018533;28;20038;-87
2022/02/14 07:10:17;;;;;;;0.60;0.60;;;;;;;;;;5017908;28;20640;-89
2022/02/14 07:12:44;;;;;;;0.40;0.40;;;;;;;;;;5030569;28;20040;-90
2022/02/14 07:15:11;;;;;;;0.30;0.30;;;;;;;;;;5018560;28;20295;-88
2022/02/14 07:17:37;;;;;;;0.40;0.40;;;;;;;;;;5012980;28;20026;-91
2022/02/14 07:20:04;;;;;;;0.50;0.50;;;;;;;;;;5015682;28;20068;-92
2022/02/14 07:22:30;;;;;;;0.50;0.50;;;;;;;;;;5021026;28;20034;-92
2022/02/14 07:24:56;;;;;;;0.40;0.40;;;;;;;;;;5021168;28;20540;-94
2022/02/14 07:27:22;;;;;;;0.30;0.30;;;;;;;;;;5032050;28;20108;-93
2022/02/14 07:29:48;;;;;;;0.50;0.50;;;;;;;;;;5023744;28;20041;-86
2022/02/14 07:32:14;;;;;;;0.40;0.40;;;;;;;;;;5024209;28;20045;-90
2022/02/14 07:34:40;;;;;;;0.50;0.50;;;;;;;;;;5008841;28;20395;-89
2022/02/14 07:37:06;;;;;;;0.40;0.40;;;;;;;;;;5019819;28;20029;-90
2022/02/14 07:39:33;;;;;;;0.60;0.60;;;;;;;;;;5014028;28;20026;-87
2022/02/14 07:41:59;;;;;;;0.55;0.55;;;;;;;;;;5027348;28;20496;-90
2022/02/14 07:44:25;;;;;;;0.40;0.40;;;;;;;;;;5021911;28;20870;-88
2022/02/14 07:46:52;;;;;;;0.50;0.50;;;;;;;;;;5023899;28;20033;-79
2022/02/14 07:49:18;;;;;;;;;;;;;;;;;;5023016;28;20041;-80
2022/02/14 07:51:44;;;;;;;0.50;0.50;;;;;;;;;;5023581;28;19913;-79
2022/02/14 07:54:10;;;;;;;0.50;0.50;;;;;;;;;;5014230;28;20072;-80
2022/02/14 07:56:37;;;;;;;0.32;0.32;;;;;;;;;;5024128;28;20022;-80
2022/02/14 07:59:04;;;;;;;0.32;0.32;;;;;;;;;;5023690;28;20072;-80
2022/02/14 08:01:30;;;;;;;0.40;0.40;;;;;;;;;;5018804;28;20033;-80
2022/02/14 08:03:56;;;;;;;0.40;0.40;;;;;;;;;;5017036;28;20556;-79
2022/02/14 08:06:23;;;;;;;0.50;0.50;;;;;;;;;;5016376;28;20044;-85
2022/02/14 08:08:50;;;;;;;0.70;0.70;;;;;;;;;;5017402;28;20040;-85
2022/02/14 08:11:17;;;;;;;0.73;0.73;;;;;;;;;;5021494;28;20049;-86
2022/02/14 08:13:43;;;;;;;0.50;0.50;;;;;;;;;;5026416;28;20412;-86
2022/02/14 08:16:10;;;;;;;0.70;0.70;;;;;;;;;;5021630;28;20055;-87
2022/02/14 08:18:36;;;;;;;0.40;0.40;;;;;;;;;;5016861;28;20029;-90
2022/02/14 08:21:02;;;;;;;0.50;0.50;;;;;;;;;;5017473;28;20065;-85
2022/02/14 08:23:29;;;;;;;0.50;0.50;;;;;;;;;;5017059;28;20319;-86
2022/02/14 08:25:55;;;;;;;0.40;0.40;;;;;;;;;;5025306;28;20129;-87
2022/02/14 08:28:22;;;;;;;0.40;0.40;;;;;;;;;;5027540;28;20032;-84
2022/02/14 08:30:48;;;;;;;0.30;0.30;;;;;;;;;;5013199;28;20057;-85
2022/02/14 08:33:14;;;;;;;0.30;0.30;;;;;;;;;;5012344;28;20540;-90
2022/02/14 08:35:41;;;;;;;0.40;0.40;;;;;;;;;;5013102;28;20262;-90
2022/02/14 08:38:07;;;;;;;0.50;0.50;;;;;;;;;;5023473;28;20029;-84
2022/02/14 08:40:33;;;;;;;0.30;0.30;;;;;;;;;;5017601;28;20412;-88
2022/02/14 08:43:00;;;;;;;0.40;0.40;;;;;;;;;;5013602;28;20044;-86
2022/02/14 08:45:30;;;;;;;0.30;0.30;;;;;;;;;;5019538;28;20568;-89
2022/02/14 08:47:56;;;;;;;0.20;0.20;;;;;;;;;;5017915;28;20040;-87
2022/02/14 08:50:22;;;;;;;0.20;0.20;;;;;;;;;;5011121;28;20029;-87
2022/02/14 08:52:48;;;;;;;0.30;0.30;;;;;;;;;;5024500;28;20037;-88
2022/02/14 08:55:15;;;;;;;0.30;0.30;;;;;;;;;;5025003;28;20880;-87
2022/02/14 08:57:41;;;;;;;;;;;;;;;;;;5028053;28;20033;-87
2022/02/14 09:00:08;;;;;;;0.50;0.50;;;;;;;;;;5028484;28;19970;-88
2022/02/14 09:02:34;;;;;;;0.40;0.40;;;;;;;;;;5022234;28;20057;-87
2022/02/14 09:05:00;;;;;;;0.20;0.20;;;;;;;;;;5023927;28;20412;-82
2022/02/14 09:07:26;;;;;;;0.40;0.40;;;;;;;;;;5021233;28;20037;-83
2022/02/14 09:09:52;;;;;;;0.57;0.57;;;;;;;;;;5012775;28;20812;-83
2022/02/14 09:12:19;;;;;;;0.40;0.40;;;;;;;;;;5022075;28;20424;-83
2022/02/14 09:14:46;;;;;;;0.30;0.30;;;;;;;;;;5019751;28;20120;-83
2022/02/14 09:17:12;;;;;;;0.30;0.30;;;;;;;;;;5005398;28;20079;-83
2022/02/14 09:19:38;;;;;;;0.30;0.30;;;;;;;;;;5020007;28;20041;-83
2022/02/14 09:22:04;;;;;;;0.37;0.37;;;;;;;;;;5020081;28;20037;-84
2022/02/14 09:24:30;;;;;;;0.30;0.30;;;;;;;;;;5022542;28;20757;-84
2022/02/14 09:26:57;;;;;;;0.30;0.30;;;;;;;;;;5022766;28;20271;-83
2022/02/14 09:29:23;;;;;;;0.30;0.30;;;;;;;;;;5008563;28;20111;-83
2022/02/14 09:31:52;;;;;;;0.30;0.30;;;;;;;;;;5024097;28;20140;-81
2022/02/14 09:34:19;;;;;;;0.40;0.40;;;;;;;;;;5025583;28;20108;-83
2022/02/14 09:36:46;;;;;;;0.40;0.40;;;;;;;;;;5026105;28;20045;-83
2022/02/14 09:39:13;;;;;;;0.30;0.30;;;;;;;;;;5025683;28;20041;-83
2022/02/14 09:41:39;;;;;;;0.40;0.40;;;;;;;;;;5023780;28;20067;-83
2022/02/14 09:44:06;;;;;;;0.40;0.40;;;;;;;;;;5025667;28;20025;-83
2022/02/14 09:46:32;;;;;;;0.30;0.30;;;;;;;;;;5024252;28;20033;-84
2022/02/14 09:49:02;;;;;;;0.50;0.50;;;;;;;;;;5025848;28;20105;-83
2022/02/14 09:51:29;;;;;;;0.32;0.32;;;;;;;;;;5025696;28;20828;-83
2022/02/14 09:53:55;;;;;;;0.40;0.40;;;;;;;;;;5024049;28;20041;-83
2022/02/14 09:56:22;;;;;;;0.50;0.50;;;;;;;;;;5023656;28;20412;-83
2022/02/14 09:58:48;;;;;;;0.35;0.35;;;;;;;;;;5002671;28;20045;-83
2022/02/14 10:01:14;;;;;;;0.30;0.30;;;;;;;;;;5020188;28;20662;-83
2022/02/14 10:03:49;;;;;;;0.32;0.32;;;;;;;;;;5023462;28;20041;-83
2022/02/14 10:06:24;;;;;;;0.30;0.30;;;;;;;;;;5024675;28;20913;-88
2022/02/14 10:09:04;;;;;;;0.50;0.50;;;;;;;;;;5023879;28;20460;-87
2022/02/14 10:11:32;;;;;;;0.30;0.30;;;;;;;;;;5022857;28;20818;-86
2022/02/14 10:14:12;;;;;;;0.30;0.30;;;;;;;;;;5018345;28;20125;-85
2022/02/14 10:16:38;;;;;;;0.40;0.40;;;;;;;;;;5023243;28;20041;-88
2022/02/14 10:19:14;;;;;;;0.40;0.40;;;;;;;;;;5022729;28;20154;-86
2022/02/14 10:21:40;;;;;;;0.30;0.30;;;;;;;;;;5023534;28;20060;-86
2022/02/14 10:24:10;;;;;;;0.30;0.30;;;;;;;;;;5024568;28;20033;-85
2022/02/14 10:26:38;;;;;;;0.30;0.30;;;;;;;;;;5023136;28;20025;-85
2022/02/14 10:29:15;;;;;;;0.30;0.30;;;;;;;;;;5025025;28;20025;-85
2022/02/14 10:31:45;;;;;;;0.30;0.30;;;;;;;;;;5023125;28;20064;-85
2022/02/14 10:34:11;;;;;;;0.30;0.30;;;;;;;;;;5023651;28;20087;-85
2022/02/14 10:36:39;;;;;;;0.30;0.30;;;;;;;;;;5023689;28;20041;-85
2022/02/14 10:39:18;;;;;;;0.28;0.28;;;;;;;;;;5025656;28;20480;-85
2022/02/14 10:41:46;;;;;;;0.30;0.30;;;;;;;;;;5022700;28;20148;-85
2022/02/14 10:45:07;;;;;;;0.20;0.20;;;;;;;;;;5023415;28;20064;-86
2022/02/14 10:47:10;;;;;;;0.30;0.30;;;;;;;;;;5024748;28;20037;-85
2022/02/14 10:49:36;;;;;;;0.22;0.22;;;;;;;;;;5025239;28;20120;-86
2022/02/14 10:52:06;;;;;;;0.30;0.30;;;;;;;;;;5002581;28;20026;-86
2022/02/14 10:54:44;;;;;;;0.50;0.50;;;;;;;;;;5013189;28;20042;-86
2022/02/14 10:57:29;;;;;;;0.30;0.30;;;;;;;;;;5024136;28;20079;-86
2022/02/14 10:59:57;;;;;;;0.30;0.30;;;;;;;;;;5024009;28;20037;-86
2022/02/14 11:02:24;;;;;;;0.30;0.30;;;;;;;;;;5008064;28;20030;-85
2022/02/14 11:04:50;;;;;;;0.40;0.40;;;;;;;;;;5023629;28;20037;-86
2022/02/14 11:07:17;;;;;;;0.70;0.70;;;;;;;;;;5023744;28;20302;-86
2022/02/14 11:09:46;;;;;;;0.40;0.40;;;;;;;;;;5023567;28;20036;-86
2022/02/14 11:12:13;;;;;;;0.20;0.20;;;;;;;;;;5023275;28;20033;-86
2022/02/14 11:14:41;;;;;;;0.30;0.30;;;;;;;;;;5023897;28;20719;-86
2022/02/14 11:17:08;;;;;;;2.85;2.75;;;;;;;;;;5026648;28;20026;-86
2022/02/14 11:19:36;;;;;;;0.20;0.20;;;;;;;;;;5026826;28;20035;-86
2022/02/14 11:22:03;;;;;;;0.20;0.20;;;;;;;;;;5027576;28;20022;-87
2022/02/14 11:24:31;;;;;;;0.20;0.20;;;;;;;;;;5008545;28;20029;-86
2022/02/14 11:27:06;;;;;;;0.30;0.30;;;;;;;;;;5014860;28;20411;-85
2022/02/14 11:29:43;;;;;;;0.30;0.30;;;;;;;;;;5022761;28;20079;-87
2022/02/14 11:32:16;;;;;;;0.28;0.28;;;;;;;;;;5024005;28;20091;-85
2022/02/14 11:34:54;;;;;;;0.30;0.30;;;;;;;;;;5020324;28;20072;-87
2022/02/14 11:37:20;;;;;;;0.30;0.30;;;;;;;;;;5016369;28;20116;-87
2022/02/14 11:39:46;;;;;;;0.40;0.40;;;;;;;;;;5026292;28;20583;-87
2022/02/14 11:42:12;;;;;;;0.30;0.30;;;;;;;;;;5026557;28;20141;-86
2022/02/14 11:44:38;;;;;;;0.70;0.70;;;;;;;;;;5014126;28;20040;-86
2022/02/14 11:47:09;;;;;;;0.50;0.50;;;;;;;;;;5002672;28;20041;-86
2022/02/14 11:49:43;;;;;;;0.63;0.63;;;;;;;;;;5017252;28;20026;-87
2022/02/14 11:52:30;;;;;;;0.60;0.60;;;;;;;;;;5013305;28;20651;-87
2022/02/14 11:55:01;;;;;;;0.80;0.80;;;;;;;;;;5010598;28;20025;-86
2022/02/14 11:57:29;;;;;;;0.60;0.60;;;;;;;;;;5007082;28;20025;-87
2022/02/14 12:00:15;;;;;;;0.50;0.50;;;;;;;;;;5018347;28;20052;-86
2022/02/14 12:03:00;;;;;;;0.40;0.40;;;;;;;;;;4999581;28;20724;-86
2022/02/14 12:05:45;;;;;;;0.40;0.40;;;;;;;;;;5014689;28;20029;-82
2022/02/14 12:08:12;;;;;;;0.50;0.50;;;;;;;;;;5009406;28;20033;-82
2022/02/14 12:10:49;;;;;;;0.47;0.47;;;;;;;;;;5016817;28;20420;-82
2022/02/14 12:13:16;;;;;;;0.40;0.40;;;;;;;;;;5012952;28;20034;-82
2022/02/14 12:21:13;;;;;;;0.50;0.50;;;;;;;;;;5019031;28;20048;-83
2022/02/14 12:23:45;;;;;;;0.50;0.50;;;;;;;;;;5013601;28;20513;-83
2022/02/14 12:26:12;;;;;;;0.40;0.40;;;;;;;;;;5020332;28;20026;-82
2022/02/14 12:28:39;;;;;;;0.60;0.60;;;;;;;;;;5017859;28;20036;-82
2022/02/14 12:31:06;;;;;;;0.40;0.40;;;;;;;;;;5016986;28;20672;-83
2022/02/14 12:33:33;;;;;;;0.43;0.43;;;;;;;;;;5016360;28;20114;-83
2022/02/14 12:36:03;;;;;;;0.40;0.40;;;;;;;;;;5020866;28;20025;-82
2022/02/14 12:38:31;;;;;;;0.70;0.70;;;;;;;;;;5020448;28;21756;-83
2022/02/14 12:41:01;;;;;;;0.50;0.50;;;;;;;;;;5018313;28;20029;-83
2022/02/14 12:43:34;;;;;;;0.65;0.65;;;;;;;;;;5016783;28;20036;-82
2022/02/14 12:46:01;;;;;;;0.50;0.50;;;;;;;;;;5020883;28;20042;-83
2022/02/14 12:48:28;;;;;;;0.50;0.50;;;;;;;;;;5020238;28;20033;-83
2022/02/14 12:50:55;;;;;;;0.50;0.50;;;;;;;;;;5023643;28;20056;-83
2022/02/14 12:53:21;;;;;;;0.40;0.40;;;;;;;;;;5019379;28;20341;-82
2022/02/14 12:55:47;;;;;;;0.40;0.40;;;;;;;;;;5018157;28;20033;-83
2022/02/14 12:58:15;;;;;;;0.40;0.40;;;;;;;;;;5016690;28;20038;-82
2022/02/14 13:00:45;;;;;;;0.40;0.40;;;;;;;;;;5015647;28;21668;-83
2022/02/14 13:03:15;;;;;;;0.95;0.95;;;;;;;;;;5008041;28;20033;-83
2022/02/14 13:05:41;;;;;;;0.63;0.63;;;;;;;;;;5012640;28;20025;-88
2022/02/14 13:08:21;;;;;;;0.30;0.30;;;;;;;;;;5009224;28;20037;-86
2022/02/14 13:10:50;;;;;;;0.30;0.30;;;;;;;;;;5013209;28;20052;-88
2022/02/14 13:13:29;;;;;;;0.30;0.30;;;;;;;;;;5013899;28;20076;-87
2022/02/14 13:15:59;;;;;;;0.30;0.30;;;;;;;;;;5017474;28;20088;-87
2022/02/14 13:18:42;;;;;;;0.30;0.30;;;;;;;;;;5015978;28;20025;-86
2022/02/14 13:21:08;;;;;;;0.30;0.30;;;;;;;;;;5019921;28;20994;-87
2022/02/14 13:23:34;;;;;;;0.30;0.30;;;;;;;;;;5013105;28;20110;-87
2022/02/14 13:26:00;;;;;;;0.30;0.30;;;;;;;;;;5020694;28;20473;-87
2022/02/14 13:28:26;;;;;;;0.30;0.30;;;;;;;;;;5019151;28;20089;-88
2022/02/14 13:30:53;;;;;;;0.30;0.30;;;;;;;;;;5018679;28;20050;-87
2022/02/14 13:33:20;;;;;;;0.30;0.30;;;;;;;;;;5017150;28;20048;-88
2022/02/14 13:35:46;;;;;;;0.30;0.30;;;;;;;;;;5017313;28;20108;-88
2022/02/14 13:38:12;;;;;;;0.30;0.30;;;;;;;;;;5010272;28;20080;-86
2022/02/14 13:40:43;;;;;;;0.50;0.50;;;;;;;;;;5009324;28;20298;-88
2022/02/14 13:43:17;;;;;;;0.63;0.63;;;;;;;;;;5020640;28;20045;-86
2022/02/14 13:45:54;;;;;;;0.30;0.30;;;;;;;;;;5017526;28;20025;-88
2022/02/14 13:48:30;;;;;;;0.52;0.52;;;;;;;;;;5015669;28;20830;-88
2022/02/14 13:50:57;;;;;;;0.40;0.40;;;;;;;;;;5014096;28;20408;-87
2022/02/14 13:53:23;;;;;;;0.40;0.40;;;;;;;;;;5013923;28;20091;-88
2022/02/14 13:56:08;;;;;;;0.33;0.33;;;;;;;;;;5019300;28;20552;-87
2022/02/14 13:58:36;;;;;;;0.30;0.30;;;;;;;;;;5017359;28;20116;-88
2022/02/14 14:01:21;;;;;;;0.40;0.40;;;;;;;;;;5016294;28;20026;-88
2022/02/14 14:03:48;;;;;;;0.30;0.30;;;;;;;;;;5016476;28;20088;-88
2022/02/14 14:06:22;;;;;;;0.30;0.30;;;;;;;;;;5014345;28;20028;-89
2022/02/14 14:08:48;;;;;;;0.30;0.30;;;;;;;;;;5012998;28;20036;-88
2022/02/14 14:11:30;;;;;;;0.40;0.40;;;;;;;;;;5013390;28;20095;-87
2022/02/14 14:13:56;;;;;;;0.40;0.40;;;;;;;;;;5013525;28;20048;-88
2022/02/14 14:16:22;;;;;;;0.40;0.40;;;;;;;;;;5016085;28;20025;-88
2022/02/14 14:18:48;;;;;;;0.40;0.40;;;;;;;;;;5013345;28;20038;-87
2022/02/14 14:21:17;;;;;;;0.40;0.40;;;;;;;;;;5016143;28;20725;-88
2022/02/14 14:23:43;;;;;;;0.20;0.20;;;;;;;;;;5010177;28;20140;-87
2022/02/14 14:26:09;;;;;;;0.30;0.30;;;;;;;;;;5013245;28;20030;-88
2022/02/14 14:28:36;;;;;;;0.30;0.30;;;;;;;;;;5011870;28;20508;-87
2022/02/14 14:31:06;;;;;;;0.30;0.30;;;;;;;;;;5010816;28;20083;-87
2022/02/14 14:33:32;;;;;;;0.25;0.25;;;;;;;;;;5015635;28;20046;-88
2022/02/14 14:35:59;;;;;;;0.40;0.40;;;;;;;;;;5012059;28;20440;-87
2022/02/14 14:38:26;;;;;;;0.40;0.40;;;;;;;;;;5012646;28;20089;-88
2022/02/14 14:40:52;;;;;;;0.30;0.30;;;;;;;;;;5018565;28;20253;-88
2022/02/14 14:43:19;;;;;;;0.68;0.68;;;;;;;;;;5001271;28;20053;-86
2022/02/14 14:45:45;;;;;;;0.30;0.30;;;;;;;;;;5011054;28;20026;-87
2022/02/14 14:48:11;;;;;;;0.60;0.60;;;;;;;;;;5012858;28;20605;-87
2022/02/14 14:50:37;;;;;;;0.50;0.50;;;;;;;;;;5012606;28;20053;-87
2022/02/14 14:53:04;;;;;;;0.40;0.40;;;;;;;;;;5012896;28;20413;-86